<?xml version="1.0" encoding="UTF-8" standalone="no" ?>
<gpx xmlns="http://www.topografix.com/GPX/1/1" xmlns:xsi="http://www.w3.org/2001/XMLSchema-instance" xsi:schemaLocation="http://www.topografix.com/GPX/1/1 http://www.topografix.com/GPX/1/1/gpx.xsd" version="1.1" creator="VisuGPX - https://www.visugpx.com">
  <metadata>
    <name>Chambérienne 2016 - 10 kms</name>
    <desc><![CDATA[Chambérienne 2016 - 10 kms]]></desc>
  </metadata>
  <trk>
    <name><![CDATA[--Chambéry-- OR-6122545:Chambérienne2016-10km]]></name>
    <trkseg>
      <trkpt lat="45.5629" lon="5.93307">
        <ele>277</ele>
        <time>2016-05-24T21:46:16Z</time>
      </trkpt>
      <trkpt lat="45.56377" lon="5.93197">
        <ele>276</ele>
        <time>2016-05-24T21:48:16Z</time>
      </trkpt>
      <trkpt lat="45.56303" lon="5.92998">
        <ele>285</ele>
        <time>2016-05-24T21:50:16Z</time>
      </trkpt>
      <trkpt lat="45.56343" lon="5.92829">
        <ele>279</ele>
        <time>2016-05-24T21:52:16Z</time>
      </trkpt>
      <trkpt lat="45.56415" lon="5.92517">
        <ele>276</ele>
        <time>2016-05-24T21:54:16Z</time>
      </trkpt>
      <trkpt lat="45.56424" lon="5.92473">
        <ele>277</ele>
        <time>2016-05-24T21:56:16Z</time>
      </trkpt>
      <trkpt lat="45.56485" lon="5.92446">
        <ele>277</ele>
        <time>2016-05-24T21:58:16Z</time>
      </trkpt>
      <trkpt lat="45.56496" lon="5.92422">
        <ele>277</ele>
        <time>2016-05-24T22:00:16Z</time>
      </trkpt>
      <trkpt lat="45.56654" lon="5.92279">
        <ele>282</ele>
        <time>2016-05-24T22:02:16Z</time>
      </trkpt>
      <trkpt lat="45.56524" lon="5.92028">
        <ele>280</ele>
        <time>2016-05-24T22:04:16Z</time>
      </trkpt>
      <trkpt lat="45.56402" lon="5.92191">
        <ele>278</ele>
        <time>2016-05-24T22:06:16Z</time>
      </trkpt>
      <trkpt lat="45.56451" lon="5.9229">
        <ele>279</ele>
        <time>2016-05-24T22:08:16Z</time>
      </trkpt>
      <trkpt lat="45.56483" lon="5.92412">
        <ele>277</ele>
        <time>2016-05-24T22:10:16Z</time>
      </trkpt>
      <trkpt lat="45.5648" lon="5.92431">
        <ele>277</ele>
        <time>2016-05-24T22:12:16Z</time>
      </trkpt>
      <trkpt lat="45.56415" lon="5.92455">
        <ele>277</ele>
        <time>2016-05-24T22:14:16Z</time>
      </trkpt>
      <trkpt lat="45.56407" lon="5.92522">
        <ele>276</ele>
        <time>2016-05-24T22:16:16Z</time>
      </trkpt>
      <trkpt lat="45.56338" lon="5.92786">
        <ele>279</ele>
        <time>2016-05-24T22:18:16Z</time>
      </trkpt>
      <trkpt lat="45.56326" lon="5.92836">
        <ele>281</ele>
        <time>2016-05-24T22:20:16Z</time>
      </trkpt>
      <trkpt lat="45.56232" lon="5.92747">
        <ele>302</ele>
        <time>2016-05-24T22:22:16Z</time>
      </trkpt>
      <trkpt lat="45.56153" lon="5.92693">
        <ele>323</ele>
        <time>2016-05-24T22:24:16Z</time>
      </trkpt>
      <trkpt lat="45.56106" lon="5.92635">
        <ele>331</ele>
        <time>2016-05-24T22:26:16Z</time>
      </trkpt>
      <trkpt lat="45.56068" lon="5.92571">
        <ele>337</ele>
        <time>2016-05-24T22:28:16Z</time>
      </trkpt>
      <trkpt lat="45.56045" lon="5.92519">
        <ele>339</ele>
        <time>2016-05-24T22:30:16Z</time>
      </trkpt>
      <trkpt lat="45.56055" lon="5.92622">
        <ele>347</ele>
        <time>2016-05-24T22:32:16Z</time>
      </trkpt>
      <trkpt lat="45.56013" lon="5.9259">
        <ele>359</ele>
        <time>2016-05-24T22:34:16Z</time>
      </trkpt>
      <trkpt lat="45.55948" lon="5.92489">
        <ele>372</ele>
        <time>2016-05-24T22:36:16Z</time>
      </trkpt>
      <trkpt lat="45.55915" lon="5.92519">
        <ele>385</ele>
        <time>2016-05-24T22:38:16Z</time>
      </trkpt>
      <trkpt lat="45.55837" lon="5.92498">
        <ele>399</ele>
        <time>2016-05-24T22:40:16Z</time>
      </trkpt>
      <trkpt lat="45.55763" lon="5.925">
        <ele>405</ele>
        <time>2016-05-24T22:42:16Z</time>
      </trkpt>
      <trkpt lat="45.55682" lon="5.92487">
        <ele>416</ele>
        <time>2016-05-24T22:44:16Z</time>
      </trkpt>
      <trkpt lat="45.55631" lon="5.92476">
        <ele>422</ele>
        <time>2016-05-24T22:46:16Z</time>
      </trkpt>
      <trkpt lat="45.55565" lon="5.9245">
        <ele>427</ele>
        <time>2016-05-24T22:48:16Z</time>
      </trkpt>
      <trkpt lat="45.5546" lon="5.92412">
        <ele>440</ele>
        <time>2016-05-24T22:50:16Z</time>
      </trkpt>
      <trkpt lat="45.55407" lon="5.9241">
        <ele>446</ele>
        <time>2016-05-24T22:52:16Z</time>
      </trkpt>
      <trkpt lat="45.55352" lon="5.92463">
        <ele>451</ele>
        <time>2016-05-24T22:54:16Z</time>
      </trkpt>
      <trkpt lat="45.55298" lon="5.92448">
        <ele>451</ele>
        <time>2016-05-24T22:56:16Z</time>
      </trkpt>
      <trkpt lat="45.55239" lon="5.92433">
        <ele>451</ele>
        <time>2016-05-24T22:58:16Z</time>
      </trkpt>
      <trkpt lat="45.55209" lon="5.92496">
        <ele>455</ele>
        <time>2016-05-24T23:00:16Z</time>
      </trkpt>
      <trkpt lat="45.55186" lon="5.9256">
        <ele>457</ele>
        <time>2016-05-24T23:02:16Z</time>
      </trkpt>
      <trkpt lat="45.55201" lon="5.92607">
        <ele>454</ele>
        <time>2016-05-24T23:04:16Z</time>
      </trkpt>
      <trkpt lat="45.55217" lon="5.92655">
        <ele>450</ele>
        <time>2016-05-24T23:06:16Z</time>
      </trkpt>
      <trkpt lat="45.55213" lon="5.92721">
        <ele>444</ele>
        <time>2016-05-24T23:08:16Z</time>
      </trkpt>
      <trkpt lat="45.55229" lon="5.9274">
        <ele>441</ele>
        <time>2016-05-24T23:10:16Z</time>
      </trkpt>
      <trkpt lat="45.5521" lon="5.92757">
        <ele>441</ele>
        <time>2016-05-24T23:12:16Z</time>
      </trkpt>
      <trkpt lat="45.55106" lon="5.92819">
        <ele>433</ele>
        <time>2016-05-24T23:14:16Z</time>
      </trkpt>
      <trkpt lat="45.55035" lon="5.92867">
        <ele>428</ele>
        <time>2016-05-24T23:16:16Z</time>
      </trkpt>
      <trkpt lat="45.55024" lon="5.92903">
        <ele>426</ele>
        <time>2016-05-24T23:18:16Z</time>
      </trkpt>
      <trkpt lat="45.54995" lon="5.92912">
        <ele>429</ele>
        <time>2016-05-24T23:20:16Z</time>
      </trkpt>
      <trkpt lat="45.54948" lon="5.92891">
        <ele>441</ele>
        <time>2016-05-24T23:22:16Z</time>
      </trkpt>
      <trkpt lat="45.54863" lon="5.92851">
        <ele>452</ele>
        <time>2016-05-24T23:24:16Z</time>
      </trkpt>
      <trkpt lat="45.54712" lon="5.92759">
        <ele>464</ele>
        <time>2016-05-24T23:26:16Z</time>
      </trkpt>
      <trkpt lat="45.54627" lon="5.92697">
        <ele>469</ele>
        <time>2016-05-24T23:28:16Z</time>
      </trkpt>
      <trkpt lat="45.54571" lon="5.92667">
        <ele>474</ele>
        <time>2016-05-24T23:30:16Z</time>
      </trkpt>
      <trkpt lat="45.54551" lon="5.92637">
        <ele>478</ele>
        <time>2016-05-24T23:32:16Z</time>
      </trkpt>
      <trkpt lat="45.5453" lon="5.9255">
        <ele>480</ele>
        <time>2016-05-24T23:34:16Z</time>
      </trkpt>
      <trkpt lat="45.54603" lon="5.92527">
        <ele>476</ele>
        <time>2016-05-24T23:36:16Z</time>
      </trkpt>
      <trkpt lat="45.54659" lon="5.92503">
        <ele>472</ele>
        <time>2016-05-24T23:38:16Z</time>
      </trkpt>
      <trkpt lat="45.54699" lon="5.92501">
        <ele>473</ele>
        <time>2016-05-24T23:40:16Z</time>
      </trkpt>
      <trkpt lat="45.54721" lon="5.9249">
        <ele>474</ele>
        <time>2016-05-24T23:42:16Z</time>
      </trkpt>
      <trkpt lat="45.54721" lon="5.92459">
        <ele>477</ele>
        <time>2016-05-24T23:44:16Z</time>
      </trkpt>
      <trkpt lat="45.54729" lon="5.92443">
        <ele>479</ele>
        <time>2016-05-24T23:46:16Z</time>
      </trkpt>
      <trkpt lat="45.54663" lon="5.92411">
        <ele>482</ele>
        <time>2016-05-24T23:48:16Z</time>
      </trkpt>
      <trkpt lat="45.54627" lon="5.92397">
        <ele>484</ele>
        <time>2016-05-24T23:50:16Z</time>
      </trkpt>
      <trkpt lat="45.54621" lon="5.92355">
        <ele>484</ele>
        <time>2016-05-24T23:52:16Z</time>
      </trkpt>
      <trkpt lat="45.54583" lon="5.9233">
        <ele>487</ele>
        <time>2016-05-24T23:54:16Z</time>
      </trkpt>
      <trkpt lat="45.54544" lon="5.92342">
        <ele>489</ele>
        <time>2016-05-24T23:56:16Z</time>
      </trkpt>
      <trkpt lat="45.54491" lon="5.92339">
        <ele>490</ele>
        <time>2016-05-24T23:58:16Z</time>
      </trkpt>
      <trkpt lat="45.54444" lon="5.9234">
        <ele>490</ele>
        <time>2016-05-25T00:00:16Z</time>
      </trkpt>
      <trkpt lat="45.54313" lon="5.92308">
        <ele>496</ele>
        <time>2016-05-25T00:02:16Z</time>
      </trkpt>
      <trkpt lat="45.54208" lon="5.92299">
        <ele>511</ele>
        <time>2016-05-25T00:04:16Z</time>
      </trkpt>
      <trkpt lat="45.54207" lon="5.92441">
        <ele>536</ele>
        <time>2016-05-25T00:06:16Z</time>
      </trkpt>
      <trkpt lat="45.54218" lon="5.92534">
        <ele>544</ele>
        <time>2016-05-25T00:08:16Z</time>
      </trkpt>
      <trkpt lat="45.54174" lon="5.92573">
        <ele>553</ele>
        <time>2016-05-25T00:10:16Z</time>
      </trkpt>
      <trkpt lat="45.54093" lon="5.9254">
        <ele>571</ele>
        <time>2016-05-25T00:12:16Z</time>
      </trkpt>
      <trkpt lat="45.54059" lon="5.9254">
        <ele>578</ele>
        <time>2016-05-25T00:14:16Z</time>
      </trkpt>
      <trkpt lat="45.54075" lon="5.92585">
        <ele>573</ele>
        <time>2016-05-25T00:16:16Z</time>
      </trkpt>
      <trkpt lat="45.54096" lon="5.92672">
        <ele>569</ele>
        <time>2016-05-25T00:18:16Z</time>
      </trkpt>
      <trkpt lat="45.54086" lon="5.92779">
        <ele>576</ele>
        <time>2016-05-25T00:20:16Z</time>
      </trkpt>
      <trkpt lat="45.54048" lon="5.92838">
        <ele>577</ele>
        <time>2016-05-25T00:22:16Z</time>
      </trkpt>
      <trkpt lat="45.54002" lon="5.92849">
        <ele>579</ele>
        <time>2016-05-25T00:24:16Z</time>
      </trkpt>
      <trkpt lat="45.53965" lon="5.92904">
        <ele>569</ele>
        <time>2016-05-25T00:26:16Z</time>
      </trkpt>
      <trkpt lat="45.54027" lon="5.92933">
        <ele>566</ele>
        <time>2016-05-25T00:28:16Z</time>
      </trkpt>
      <trkpt lat="45.54106" lon="5.92966">
        <ele>564</ele>
        <time>2016-05-25T00:30:16Z</time>
      </trkpt>
      <trkpt lat="45.54219" lon="5.93014">
        <ele>564</ele>
        <time>2016-05-25T00:32:16Z</time>
      </trkpt>
      <trkpt lat="45.54246" lon="5.9304">
        <ele>563</ele>
        <time>2016-05-25T00:34:16Z</time>
      </trkpt>
      <trkpt lat="45.54385" lon="5.93089">
        <ele>546</ele>
        <time>2016-05-25T00:36:16Z</time>
      </trkpt>
      <trkpt lat="45.54529" lon="5.93145">
        <ele>531</ele>
        <time>2016-05-25T00:38:16Z</time>
      </trkpt>
      <trkpt lat="45.54627" lon="5.93154">
        <ele>528</ele>
        <time>2016-05-25T00:40:16Z</time>
      </trkpt>
      <trkpt lat="45.54687" lon="5.93167">
        <ele>528</ele>
        <time>2016-05-25T00:42:16Z</time>
      </trkpt>
      <trkpt lat="45.54736" lon="5.9321">
        <ele>520</ele>
        <time>2016-05-25T00:44:16Z</time>
      </trkpt>
      <trkpt lat="45.54747" lon="5.9324">
        <ele>514</ele>
        <time>2016-05-25T00:46:16Z</time>
      </trkpt>
      <trkpt lat="45.54818" lon="5.93257">
        <ele>507</ele>
        <time>2016-05-25T00:48:16Z</time>
      </trkpt>
      <trkpt lat="45.54821" lon="5.93271">
        <ele>504</ele>
        <time>2016-05-25T00:50:16Z</time>
      </trkpt>
      <trkpt lat="45.54777" lon="5.93337">
        <ele>491</ele>
        <time>2016-05-25T00:52:16Z</time>
      </trkpt>
      <trkpt lat="45.54787" lon="5.93407">
        <ele>480</ele>
        <time>2016-05-25T00:54:16Z</time>
      </trkpt>
      <trkpt lat="45.54799" lon="5.93446">
        <ele>473</ele>
        <time>2016-05-25T00:56:16Z</time>
      </trkpt>
      <trkpt lat="45.54827" lon="5.93455">
        <ele>472</ele>
        <time>2016-05-25T00:58:16Z</time>
      </trkpt>
      <trkpt lat="45.54879" lon="5.93433">
        <ele>476</ele>
        <time>2016-05-25T01:00:16Z</time>
      </trkpt>
      <trkpt lat="45.54935" lon="5.93429">
        <ele>474</ele>
        <time>2016-05-25T01:02:16Z</time>
      </trkpt>
      <trkpt lat="45.54938" lon="5.93448">
        <ele>468</ele>
        <time>2016-05-25T01:04:16Z</time>
      </trkpt>
      <trkpt lat="45.55025" lon="5.93423">
        <ele>465</ele>
        <time>2016-05-25T01:06:16Z</time>
      </trkpt>
      <trkpt lat="45.55059" lon="5.93433">
        <ele>458</ele>
        <time>2016-05-25T01:08:16Z</time>
      </trkpt>
      <trkpt lat="45.55078" lon="5.93413">
        <ele>460</ele>
        <time>2016-05-25T01:10:16Z</time>
      </trkpt>
      <trkpt lat="45.55135" lon="5.93399">
        <ele>453</ele>
        <time>2016-05-25T01:12:16Z</time>
      </trkpt>
      <trkpt lat="45.55164" lon="5.9344">
        <ele>443</ele>
        <time>2016-05-25T01:14:16Z</time>
      </trkpt>
      <trkpt lat="45.55195" lon="5.93448">
        <ele>436</ele>
        <time>2016-05-25T01:16:16Z</time>
      </trkpt>
      <trkpt lat="45.55226" lon="5.9344">
        <ele>432</ele>
        <time>2016-05-25T01:18:16Z</time>
      </trkpt>
      <trkpt lat="45.55319" lon="5.93504">
        <ele>417</ele>
        <time>2016-05-25T01:20:16Z</time>
      </trkpt>
      <trkpt lat="45.55327" lon="5.93563">
        <ele>409</ele>
        <time>2016-05-25T01:22:16Z</time>
      </trkpt>
      <trkpt lat="45.55366" lon="5.93569">
        <ele>404</ele>
        <time>2016-05-25T01:24:16Z</time>
      </trkpt>
      <trkpt lat="45.55431" lon="5.93591">
        <ele>394</ele>
        <time>2016-05-25T01:26:16Z</time>
      </trkpt>
      <trkpt lat="45.55543" lon="5.93526">
        <ele>387</ele>
        <time>2016-05-25T01:28:16Z</time>
      </trkpt>
      <trkpt lat="45.55594" lon="5.93436">
        <ele>383</ele>
        <time>2016-05-25T01:30:16Z</time>
      </trkpt>
      <trkpt lat="45.55781" lon="5.93262">
        <ele>345</ele>
        <time>2016-05-25T01:32:16Z</time>
      </trkpt>
      <trkpt lat="45.55848" lon="5.93206">
        <ele>335</ele>
        <time>2016-05-25T01:34:16Z</time>
      </trkpt>
      <trkpt lat="45.55902" lon="5.93219">
        <ele>329</ele>
        <time>2016-05-25T01:36:16Z</time>
      </trkpt>
      <trkpt lat="45.55963" lon="5.93235">
        <ele>319</ele>
        <time>2016-05-25T01:38:16Z</time>
      </trkpt>
      <trkpt lat="45.55917" lon="5.93448">
        <ele>341</ele>
        <time>2016-05-25T01:40:16Z</time>
      </trkpt>
      <trkpt lat="45.56086" lon="5.93548">
        <ele>321</ele>
        <time>2016-05-25T01:42:16Z</time>
      </trkpt>
      <trkpt lat="45.56142" lon="5.9357">
        <ele>315</ele>
        <time>2016-05-25T01:44:16Z</time>
      </trkpt>
      <trkpt lat="45.5619" lon="5.93611">
        <ele>310</ele>
        <time>2016-05-25T01:46:16Z</time>
      </trkpt>
      <trkpt lat="45.56347" lon="5.93684">
        <ele>295</ele>
        <time>2016-05-25T01:48:16Z</time>
      </trkpt>
      <trkpt lat="45.56396" lon="5.93671">
        <ele>287</ele>
        <time>2016-05-25T01:50:16Z</time>
      </trkpt>
      <trkpt lat="45.56479" lon="5.93705">
        <ele>285</ele>
        <time>2016-05-25T01:52:16Z</time>
      </trkpt>
      <trkpt lat="45.566" lon="5.93437">
        <ele>279</ele>
        <time>2016-05-25T01:54:16Z</time>
      </trkpt>
      <trkpt lat="45.56423" lon="5.93225">
        <ele>275</ele>
        <time>2016-05-25T01:56:16Z</time>
      </trkpt>
      <trkpt lat="45.56276" lon="5.93315">
        <ele>277</ele>
        <time>2016-05-25T01:58:16Z</time>
      </trkpt>
    </trkseg>
  </trk>
</gpx>